createdAt,value
2022-08-09T00:00:34.565Z,51.77
2022-08-09T00:02:49.331Z,51.27
2022-08-09T00:05:03.507Z,50.61
2022-08-09T00:07:15.372Z,49.87
2022-08-09T00:09:21.035Z,49.14
2022-08-09T00:11:27.763Z,48.88
2022-08-09T00:13:46.892Z,48.67
2022-08-09T00:15:59.339Z,48.33
2022-08-09T00:18:10.914Z,48.29
2022-08-09T00:20:15.313Z,48.33
2022-08-09T00:22:18.325Z,48.08
2022-08-09T00:24:21.128Z,48.13
2022-08-09T00:26:30.022Z,48.09
2022-08-09T00:28:35.990Z,48.32
2022-08-09T00:30:39.557Z,48.58
2022-08-09T00:32:43.360Z,48.76
2022-08-09T00:34:52.218Z,48.48
2022-08-09T00:36:55.689Z,48.78
2022-08-09T00:38:59.728Z,48.74
2022-08-09T00:41:02.369Z,48.60
2022-08-09T00:44:16.376Z,48.50
2022-08-09T00:45:30.690Z,48.09
2022-08-09T00:47:39.847Z,47.67
2022-08-09T00:49:52.443Z,48.07
2022-08-09T00:51:57.618Z,47.96
2022-08-09T00:54:05.081Z,48.01
2022-08-09T00:56:09.851Z,47.93
2022-08-09T00:58:14.736Z,47.89
2022-08-09T01:00:25.054Z,47.80
2022-08-09T01:02:31.477Z,47.96
2022-08-09T01:04:44.312Z,47.89
2022-08-09T01:07:15.139Z,48.00
2022-08-09T01:09:54.308Z,48.29
2022-08-09T01:12:24.078Z,48.33
2022-08-09T01:14:41.166Z,48.13
2022-08-09T01:16:49.219Z,48.28
2022-08-09T01:19:02.651Z,48.02
2022-08-09T01:21:07.262Z,48.09
2022-08-09T01:24:03.258Z,48.13
2022-08-09T01:25:56.565Z,48.17
2022-08-09T01:28:01.702Z,48.18
2022-08-09T01:30:28.867Z,48.11
2022-08-09T01:32:37.391Z,48.40
2022-08-09T01:34:44.000Z,48.17
2022-08-09T01:36:49.332Z,48.16
2022-08-09T01:38:53.199Z,48.34
2022-08-09T01:41:13.479Z,48.65
2022-08-09T01:43:17.337Z,49.11
2022-08-09T01:45:22.747Z,49.24
2022-08-09T01:47:27.371Z,49.50
2022-08-09T01:49:39.217Z,50.05
2022-08-09T01:51:53.056Z,50.61
2022-08-09T01:53:58.762Z,51.11
2022-08-09T01:56:03.462Z,51.16
2022-08-09T01:58:09.199Z,51.23
2022-08-09T02:00:34.631Z,50.96
2022-08-09T02:02:42.111Z,50.53
2022-08-09T02:04:45.851Z,49.99
2022-08-09T02:07:18.186Z,49.69
2022-08-09T02:09:41.836Z,49.63
2022-08-09T02:11:45.943Z,50.01
2022-08-09T02:14:06.428Z,49.90
2022-08-09T02:16:12.762Z,49.40
2022-08-09T02:18:21.177Z,48.86
2022-08-09T02:20:34.060Z,48.71
2022-08-09T02:22:39.158Z,48.09
2022-08-09T02:24:46.363Z,47.79
2022-08-09T02:26:58.826Z,47.75
2022-08-09T02:29:10.899Z,47.58
2022-08-09T02:31:22.652Z,47.44
2022-08-09T02:33:37.715Z,47.38
2022-08-09T02:36:03.144Z,47.01
2022-08-09T02:38:07.155Z,47.25
2022-08-09T02:40:18.553Z,47.33
2022-08-09T02:42:37.298Z,47.29
2022-08-09T02:44:44.833Z,47.79
2022-08-09T02:46:52.397Z,49.70
2022-08-09T02:48:59.265Z,51.74
2022-08-09T02:51:03.451Z,51.88
2022-08-09T02:53:17.296Z,51.93
2022-08-09T02:55:39.434Z,51.49
2022-08-09T02:58:00.287Z,50.98
2022-08-09T03:00:25.282Z,51.31
2022-08-09T03:02:31.211Z,51.44
2022-08-09T03:04:36.658Z,51.55
2022-08-09T03:06:41.742Z,51.69
2022-08-09T03:08:49.690Z,52.02
2022-08-09T03:10:56.835Z,52.08
2022-08-09T03:13:04.713Z,51.37
2022-08-09T03:15:13.400Z,51.12
2022-08-09T03:17:26.767Z,50.90
2022-08-09T03:19:57.651Z,51.41
2022-08-09T03:21:57.315Z,51.86
2022-08-09T03:24:04.275Z,52.40
2022-08-09T03:26:08.751Z,53.04
2022-08-09T03:28:12.422Z,53.29
2022-08-09T03:30:29.847Z,52.45
2022-08-09T03:32:38.167Z,51.63
2022-08-09T03:34:41.551Z,50.33
2022-08-09T03:36:48.070Z,49.05
2022-08-09T03:39:02.369Z,49.46
2022-08-09T03:41:05.309Z,47.54
2022-08-09T03:43:08.384Z,47.54
2022-08-09T03:45:15.567Z,47.23
2022-08-09T03:47:18.397Z,46.26
2022-08-09T03:49:24.053Z,46.13
2022-08-09T03:51:55.509Z,45.82
2022-08-09T03:53:56.930Z,45.81
2022-08-09T03:56:02.986Z,45.49
2022-08-09T03:58:16.612Z,45.88
2022-08-09T04:00:23.798Z,44.98
2022-08-09T04:02:31.770Z,45.31
2022-08-09T04:04:38.813Z,44.49
2022-08-09T04:06:44.131Z,45.15
2022-08-09T04:08:53.512Z,44.77
2022-08-09T04:10:56.339Z,43.50
2022-08-09T04:13:11.573Z,43.36
2022-08-09T04:15:29.457Z,43.63
2022-08-09T04:17:42.398Z,44.37
2022-08-09T04:19:51.442Z,44.69
2022-08-09T04:21:59.228Z,44.54
2022-08-09T04:24:02.851Z,44.67
2022-08-09T04:26:05.664Z,44.73
2022-08-09T04:28:08.341Z,45.05
2022-08-09T04:30:14.005Z,44.87
2022-08-09T04:32:16.587Z,44.57
2022-08-09T04:34:30.743Z,43.82
2022-08-09T04:36:34.745Z,43.97
2022-08-09T04:38:37.387Z,43.61
2022-08-09T04:40:56.414Z,42.97
2022-08-09T04:42:59.842Z,43.87
2022-08-09T04:45:03.730Z,42.78
2022-08-09T04:47:07.612Z,43.25
2022-08-09T04:49:11.399Z,43.70
2022-08-09T04:51:17.470Z,44.39
2022-08-09T04:53:22.985Z,45.35
2022-08-09T04:55:25.576Z,45.02
2022-08-09T04:57:54.164Z,45.23
2022-08-09T04:59:52.656Z,45.67
2022-08-09T05:01:55.310Z,45.27
2022-08-09T05:03:58.759Z,45.53
2022-08-09T05:06:07.679Z,44.78
2022-08-09T05:08:14.001Z,45.38
2022-08-09T05:10:18.061Z,45.98
2022-08-09T05:12:22.546Z,45.79
2022-08-09T05:14:26.880Z,46.01
2022-08-09T05:16:31.602Z,47.37
2022-08-09T05:18:42.487Z,49.49
2022-08-09T05:20:58.303Z,50.23
2022-08-09T05:23:53.883Z,51.31
2022-08-09T05:25:25.800Z,52.63
2022-08-09T05:27:34.944Z,54.37
2022-08-09T05:29:48.518Z,51.66
2022-08-09T05:31:58.379Z,54.19
2022-08-09T05:34:01.578Z,53.12
2022-08-09T05:36:05.238Z,55.40
2022-08-09T05:38:09.891Z,54.00
2022-08-09T05:40:27.035Z,53.76
2022-08-09T05:42:29.761Z,52.53
2022-08-09T05:44:34.574Z,52.57
2022-08-09T05:46:37.786Z,53.01
2022-08-09T05:48:41.872Z,53.03
2022-08-09T05:50:51.009Z,51.12
2022-08-09T05:53:11.737Z,51.75
2022-08-09T05:55:31.340Z,52.74
2022-08-09T05:57:56.171Z,50.86
2022-08-09T05:59:58.106Z,50.33
2022-08-09T06:02:00.798Z,50.76
2022-08-09T06:04:05.919Z,49.91
2022-08-09T06:06:08.933Z,49.13
2022-08-09T06:08:12.518Z,50.11
2022-08-09T06:10:18.106Z,49.89
2022-08-09T06:12:22.199Z,49.09
2022-08-09T06:14:29.233Z,47.35
2022-08-09T06:16:31.804Z,46.30
2022-08-09T06:18:35.414Z,46.22
2022-08-09T06:20:39.422Z,47.13
2022-08-09T06:22:42.383Z,47.01
2022-08-09T06:24:48.995Z,46.90
2022-08-09T06:26:51.712Z,45.13
2022-08-09T06:28:59.880Z,43.40
2022-08-09T06:31:07.237Z,40.63
2022-08-09T06:33:30.538Z,42.19
2022-08-09T06:35:55.834Z,41.43
2022-08-09T06:38:05.863Z,41.33
2022-08-09T06:40:21.661Z,41.32
2022-08-09T06:42:28.585Z,41.67
2022-08-09T06:44:33.805Z,41.29
2022-08-09T06:46:40.365Z,39.53
2022-08-09T06:48:43.872Z,40.68
2022-08-09T06:50:47.988Z,40.69
2022-08-09T06:52:50.722Z,40.68
2022-08-09T06:54:54.331Z,40.96
2022-08-09T06:56:57.195Z,41.09
2022-08-09T07:00:51.245Z,41.91
2022-08-09T07:01:24.276Z,42.30
2022-08-09T07:03:39.534Z,40.94
2022-08-09T07:06:04.228Z,39.23
2022-08-09T07:08:08.077Z,38.67
2022-08-09T07:10:22.414Z,38.33
2022-08-09T07:12:38.041Z,36.33
2022-08-09T07:14:43.805Z,37.66
2022-08-09T07:16:48.092Z,38.02
2022-08-09T07:18:53.437Z,37.39
2022-08-09T07:20:56.536Z,37.82
2022-08-09T07:22:59.573Z,37.95
2022-08-09T07:25:05.068Z,38.50
2022-08-09T07:27:26.993Z,38.89
2022-08-09T07:29:37.685Z,39.23
2022-08-09T07:31:45.919Z,39.46
2022-08-09T07:33:52.730Z,39.26
2022-08-09T07:35:58.585Z,39.40
2022-08-09T07:38:01.217Z,40.05
2022-08-09T07:40:04.921Z,39.72
2022-08-09T07:42:07.891Z,38.66
2022-08-09T07:44:11.818Z,38.05
2022-08-09T07:46:19.072Z,38.22
2022-08-09T07:48:29.530Z,38.18
2022-08-09T07:50:36.553Z,37.79
2022-08-09T07:52:42.963Z,36.44
2022-08-09T07:54:45.892Z,32.18
2022-08-09T07:56:54.427Z,33.49
2022-08-09T07:58:57.227Z,34.18
2022-08-09T08:01:06.699Z,34.04
2022-08-09T08:03:14.099Z,33.58
2022-08-09T08:05:17.724Z,33.92
2022-08-09T08:08:44.321Z,34.20
2022-08-09T08:09:51.745Z,33.48
2022-08-09T08:12:11.532Z,33.26
2022-08-09T08:14:21.040Z,32.92
2022-08-09T08:16:29.732Z,32.68
2022-08-09T08:18:34.232Z,32.81
2022-08-09T08:20:39.636Z,32.32
2022-08-09T08:22:48.398Z,32.29
2022-08-09T08:24:56.267Z,32.62
2022-08-09T08:27:00.174Z,32.01
2022-08-09T08:29:02.769Z,32.70
2022-08-09T08:31:13.663Z,32.79
2022-08-09T08:33:24.024Z,33.10
2022-08-09T08:35:28.217Z,32.48
2022-08-09T08:38:02.202Z,32.36
2022-08-09T08:40:07.804Z,32.40
2022-08-09T08:42:11.839Z,32.77
2022-08-09T08:44:15.715Z,32.05
2022-08-09T08:46:41.550Z,32.96
2022-08-09T08:49:03.130Z,32.37
2022-08-09T08:51:08.830Z,31.81
2022-08-09T08:53:15.904Z,30.84
2022-08-09T08:55:24.886Z,31.61
2022-08-09T08:57:28.706Z,29.97
2022-08-09T08:59:46.672Z,30.85
2022-08-09T09:01:57.354Z,30.70
2022-08-09T09:04:04.253Z,30.53
2022-08-09T09:06:09.511Z,30.47
2022-08-09T09:08:30.142Z,30.94
2022-08-09T09:10:36.347Z,30.12
2022-08-09T09:12:40.601Z,30.50
2022-08-09T09:14:44.679Z,31.44
2022-08-09T09:16:47.458Z,30.57
2022-08-09T09:19:10.716Z,30.84
2022-08-09T09:21:18.082Z,30.42
2022-08-09T09:23:49.935Z,31.19
2022-08-09T09:26:11.971Z,30.88
2022-08-09T09:28:39.062Z,30.67
2022-08-09T09:30:57.402Z,29.68
2022-08-09T09:33:16.195Z,28.61
2022-08-09T09:35:20.793Z,29.05
2022-08-09T09:37:32.001Z,29.19
2022-08-09T09:39:50.238Z,30.01
2022-08-09T09:41:58.894Z,30.81
2022-08-09T09:44:11.783Z,29.63
2022-08-09T09:48:41.026Z,27.43
2022-08-09T09:50:50.774Z,27.55
2022-08-09T09:52:56.104Z,28.00
2022-08-09T09:55:16.534Z,27.42
2022-08-09T09:58:02.983Z,27.92
2022-08-09T09:59:55.175Z,27.42
2022-08-09T10:02:01.082Z,27.44
2022-08-09T10:04:30.303Z,27.20
2022-08-09T10:06:43.054Z,27.20
2022-08-09T10:08:54.989Z,27.20
2022-08-09T10:11:00.225Z,26.62
2022-08-09T10:13:24.727Z,26.82
2022-08-09T10:16:09.310Z,27.08
2022-08-09T10:18:13.343Z,26.09
2022-08-09T10:20:27.329Z,26.38
2022-08-09T10:22:39.122Z,26.69
2022-08-09T10:24:42.017Z,26.17
2022-08-09T10:26:48.820Z,25.43
2022-08-09T10:29:34.816Z,24.13
2022-08-09T10:34:08.336Z,24.68
2022-08-09T10:36:11.465Z,24.70
2022-08-09T10:38:55.270Z,24.43
2022-08-09T10:40:41.186Z,24.99
2022-08-09T10:42:47.535Z,23.78
2022-08-09T10:45:15.682Z,23.94
2022-08-09T10:48:26.601Z,24.09
2022-08-09T10:50:06.472Z,24.10
2022-08-09T10:52:35.708Z,24.38
2022-08-09T10:54:39.221Z,23.30
2022-08-09T10:56:43.020Z,23.59
2022-08-09T10:58:49.433Z,23.77
2022-08-09T11:01:10.780Z,23.94
2022-08-09T11:03:49.584Z,24.31
2022-08-09T11:06:18.807Z,24.27
2022-08-09T11:08:47.447Z,24.69
2022-08-09T11:10:54.729Z,24.49
2022-08-09T11:13:51.106Z,23.87
2022-08-09T11:15:38.622Z,24.65
2022-08-09T11:18:03.070Z,24.99
2022-08-09T11:20:20.307Z,25.27
2022-08-09T11:22:57.074Z,25.83
2022-08-09T11:25:08.972Z,25.51
2022-08-09T11:28:04.000Z,25.67
2022-08-09T11:30:31.889Z,26.93
2022-08-09T11:32:46.676Z,26.28
2022-08-09T11:34:52.459Z,26.45
2022-08-09T11:36:58.705Z,26.54
2022-08-09T11:39:03.014Z,27.10
2022-08-09T11:41:16.004Z,26.83
2022-08-09T11:43:40.987Z,27.21
2022-08-09T11:45:56.024Z,27.25
2022-08-09T11:48:11.149Z,27.05
2022-08-09T11:50:53.961Z,27.01
2022-08-09T11:53:58.020Z,27.21
2022-08-09T11:55:51.929Z,26.90
2022-08-09T11:58:02.056Z,27.06
2022-08-09T12:00:16.457Z,27.67
2022-08-09T12:02:37.686Z,26.71
2022-08-09T12:04:43.298Z,26.02
2022-08-09T12:06:55.528Z,26.20
2022-08-09T12:09:01.420Z,25.63
2022-08-09T12:11:04.613Z,25.63
2022-08-09T12:14:07.133Z,25.16
2022-08-09T12:16:27.211Z,25.45
2022-08-09T12:18:33.607Z,25.16
2022-08-09T12:20:43.857Z,25.00
2022-08-09T12:22:55.951Z,25.57
2022-08-09T12:25:16.864Z,24.70
2022-08-09T12:29:00.355Z,24.40
2022-08-09T12:30:01.866Z,24.27
2022-08-09T12:32:25.200Z,24.38
2022-08-09T12:34:39.888Z,23.92
2022-08-09T12:36:58.852Z,23.69
2022-08-09T12:39:14.947Z,23.69
2022-08-09T12:41:39.490Z,23.65
2022-08-09T12:44:06.324Z,24.46
2022-08-09T12:46:06.810Z,24.51
2022-08-09T12:48:27.893Z,24.84
2022-08-09T12:50:36.355Z,24.55
2022-08-09T12:53:09.108Z,24.40
2022-08-09T12:56:14.416Z,23.59
2022-08-09T12:57:50.758Z,23.07
2022-08-09T13:00:25.101Z,23.62
2022-08-09T13:02:28.226Z,22.86
2022-08-09T13:04:38.265Z,22.79
2022-08-09T13:06:42.383Z,22.85
2022-08-09T13:09:02.700Z,22.68
2022-08-09T13:11:13.390Z,22.47
2022-08-09T13:14:41.348Z,22.89
2022-08-09T13:16:17.509Z,22.74
2022-08-09T13:18:27.179Z,22.48
2022-08-09T13:20:37.224Z,21.86
2022-08-09T13:23:01.586Z,22.68
2022-08-09T13:25:14.099Z,22.82
2022-08-09T13:27:39.950Z,22.71
2022-08-09T13:30:04.203Z,22.18
2022-08-09T13:32:26.420Z,22.24
2022-08-09T13:34:36.153Z,21.53
2022-08-09T13:36:43.320Z,22.31
2022-08-09T13:38:55.063Z,22.55
2022-08-09T13:41:39.018Z,23.42
2022-08-09T13:43:35.622Z,24.05
2022-08-09T13:46:43.749Z,23.45
2022-08-09T13:48:04.417Z,23.29
2022-08-09T13:50:30.824Z,22.41
2022-08-09T13:52:34.785Z,21.41
2022-08-09T13:54:41.662Z,21.02
2022-08-09T13:56:47.004Z,21.00
2022-08-09T13:58:51.558Z,21.14
2022-08-09T14:00:54.795Z,21.27
2022-08-09T14:03:03.761Z,19.58
2022-08-09T14:05:59.082Z,19.09
2022-08-09T14:07:42.573Z,19.29
2022-08-09T14:09:45.226Z,19.12
2022-08-09T14:11:48.137Z,19.59
2022-08-09T14:14:23.377Z,19.66
2022-08-09T14:16:19.528Z,20.27
2022-08-09T14:18:32.102Z,19.37
2022-08-09T14:20:35.159Z,19.15
2022-08-09T14:22:37.941Z,19.45
2022-08-09T14:24:47.114Z,20.32
2022-08-09T14:26:56.477Z,20.63
2022-08-09T14:29:08.354Z,20.92
2022-08-09T14:31:49.487Z,20.99
2022-08-09T14:33:54.632Z,21.41
2022-08-09T14:35:57.511Z,21.64
2022-08-09T14:38:20.263Z,21.65
2022-08-09T14:40:39.179Z,22.22
2022-08-09T14:42:45.869Z,22.10
2022-08-09T14:44:59.853Z,22.19
2022-08-09T14:47:29.122Z,22.18
2022-08-09T14:49:26.780Z,21.79
2022-08-09T14:51:29.983Z,22.35
2022-08-09T14:53:32.954Z,21.90
2022-08-09T14:55:48.108Z,21.56
2022-08-09T14:57:52.956Z,22.07
2022-08-09T14:59:56.849Z,22.21
2022-08-09T15:01:59.462Z,21.78
2022-08-09T15:04:02.130Z,21.36
2022-08-09T15:06:05.381Z,22.00
2022-08-09T15:08:10.283Z,22.53
2022-08-09T15:10:16.127Z,23.15
2022-08-09T15:12:19.583Z,22.57
2022-08-09T15:14:23.427Z,23.54
2022-08-09T15:16:30.340Z,23.77
2022-08-09T15:18:33.918Z,23.00
2022-08-09T15:22:00.870Z,23.77
2022-08-09T15:23:03.302Z,23.75
2022-08-09T15:25:39.118Z,24.19
2022-08-09T15:27:48.093Z,25.97
2022-08-09T15:30:56.598Z,29.48
2022-08-09T15:32:28.918Z,30.90
2022-08-09T15:34:41.802Z,32.97
2022-08-09T15:36:48.227Z,36.48
2022-08-09T15:38:51.171Z,38.33
2022-08-09T15:40:53.769Z,39.05
2022-08-09T15:42:56.444Z,39.50
2022-08-09T15:45:00.238Z,39.51
2022-08-09T15:47:03.669Z,38.91
2022-08-09T15:49:23.558Z,38.76
2022-08-09T15:51:44.573Z,38.33
2022-08-09T15:54:05.123Z,38.64
2022-08-09T15:56:21.413Z,39.07
2022-08-09T15:58:31.515Z,39.21
2022-08-09T16:00:35.629Z,39.62
2022-08-09T16:02:38.459Z,39.44
2022-08-09T16:04:42.739Z,39.08
2022-08-09T16:06:50.579Z,39.37
2022-08-09T16:08:56.178Z,39.46
2022-08-09T16:11:02.840Z,39.55
2022-08-09T16:13:18.752Z,39.42
2022-08-09T16:16:04.834Z,39.63
2022-08-09T16:17:52.195Z,39.90
2022-08-09T16:20:03.842Z,39.76
2022-08-09T16:22:07.830Z,39.57
2022-08-09T16:24:30.007Z,39.69
2022-08-09T16:26:38.021Z,40.13
2022-08-09T16:28:40.666Z,40.02
2022-08-09T16:30:44.983Z,40.13
2022-08-09T16:33:10.695Z,39.87
2022-08-09T16:35:53.063Z,39.76
2022-08-09T16:37:53.566Z,40.32
2022-08-09T16:40:05.380Z,41.07
2022-08-09T16:42:14.760Z,40.72
2022-08-09T16:44:19.384Z,40.88
2022-08-09T16:46:24.218Z,41.10
2022-08-09T16:48:41.607Z,41.70
2022-08-09T16:50:59.068Z,41.90
2022-08-09T16:53:09.854Z,41.51
2022-08-09T16:55:15.828Z,41.32
2022-08-09T16:57:20.867Z,41.49
2022-08-09T16:59:23.463Z,41.28
2022-08-09T17:01:26.685Z,41.57
2022-08-09T17:03:30.185Z,41.92
2022-08-09T17:06:02.799Z,41.62
2022-08-09T17:08:44.101Z,42.05
2022-08-09T17:10:20.112Z,42.87
2022-08-09T17:12:23.668Z,42.24
2022-08-09T17:14:28.735Z,42.70
2022-08-09T17:16:31.996Z,42.94
2022-08-09T17:18:41.138Z,43.40
2022-08-09T17:20:52.512Z,43.32
2022-08-09T17:23:00.239Z,43.65
2022-08-09T17:25:10.152Z,43.67
2022-08-09T17:27:15.343Z,42.95
2022-08-09T17:29:20.076Z,43.73
2022-08-09T17:31:23.602Z,43.31
2022-08-09T17:33:26.301Z,43.27
2022-08-09T17:35:40.810Z,43.82
2022-08-09T17:38:12.745Z,44.35
2022-08-09T17:40:18.264Z,44.53
2022-08-09T17:42:40.800Z,45.09
2022-08-09T17:44:49.458Z,45.14
2022-08-09T17:46:55.814Z,45.56
2022-08-09T17:49:00.458Z,45.86
2022-08-09T17:51:09.773Z,45.93
2022-08-09T17:53:22.309Z,46.14
2022-08-09T17:55:25.378Z,46.59
2022-08-09T17:58:03.204Z,46.70
2022-08-09T18:00:07.800Z,47.34
2022-08-09T18:02:12.838Z,47.50
2022-08-09T18:04:22.249Z,47.67
2022-08-09T18:06:32.070Z,48.14
2022-08-09T18:08:35.754Z,48.53
2022-08-09T18:10:40.047Z,49.01
2022-08-09T18:13:40.676Z,49.12
2022-08-09T18:15:13.417Z,49.07
2022-08-09T18:17:18.850Z,49.47
2022-08-09T18:20:57.866Z,49.29
2022-08-09T18:21:53.030Z,49.44
2022-08-09T18:24:11.440Z,49.30
2022-08-09T18:26:16.713Z,49.88
2022-08-09T18:30:40.805Z,50.17
2022-08-09T18:30:49.646Z,50.56
2022-08-09T18:32:54.249Z,50.80
2022-08-09T18:34:57.503Z,51.21
2022-08-09T18:37:00.222Z,51.56
2022-08-09T18:39:04.471Z,51.72
2022-08-09T18:41:07.495Z,51.83
2022-08-09T18:43:15.834Z,52.13
2022-08-09T18:46:44.910Z,52.21
2022-08-09T18:47:41.214Z,52.07
2022-08-09T18:49:47.020Z,52.44
2022-08-09T18:51:55.017Z,52.70
2022-08-09T18:54:10.534Z,52.75
2022-08-09T18:56:27.072Z,53.17
2022-08-09T18:58:32.497Z,53.19
2022-08-09T19:00:35.827Z,53.24
2022-08-09T19:02:40.295Z,53.27
2022-08-09T19:04:48.018Z,53.65
2022-08-09T19:07:07.406Z,53.42
2022-08-09T19:09:13.742Z,53.58
2022-08-09T19:11:37.716Z,53.41
2022-08-09T19:13:51.352Z,53.81
2022-08-09T19:15:56.222Z,53.58
2022-08-09T19:17:59.434Z,53.67
2022-08-09T19:20:04.002Z,53.48
2022-08-09T19:22:07.472Z,53.61
2022-08-09T19:24:36.557Z,53.54
2022-08-09T19:26:34.893Z,56.67
2022-08-09T19:28:38.423Z,57.82
2022-08-09T19:30:45.462Z,59.10
2022-08-09T19:32:52.966Z,59.69
2022-08-09T19:34:57.489Z,60.48
2022-08-09T19:37:00.459Z,61.29
2022-08-09T19:39:05.630Z,61.57
2022-08-09T19:41:08.703Z,62.53
2022-08-09T19:43:16.293Z,62.97
2022-08-09T19:45:39.123Z,62.60
2022-08-09T19:47:45.130Z,63.89
2022-08-09T19:50:09.026Z,65.30
2022-08-09T19:52:12.168Z,65.41
2022-08-09T19:54:15.170Z,66.27
2022-08-09T19:56:17.982Z,66.60
2022-08-09T19:58:31.509Z,67.47
2022-08-09T20:00:35.458Z,68.92
2022-08-09T20:04:17.840Z,69.48
2022-08-09T20:05:10.000Z,71.00
2022-08-09T20:07:21.309Z,72.05
2022-08-09T20:09:44.300Z,73.00
2022-08-09T20:11:53.107Z,73.64
2022-08-09T20:13:56.662Z,74.11
2022-08-09T20:16:34.154Z,74.36
2022-08-09T20:18:27.820Z,74.95
2022-08-09T20:20:31.254Z,75.20
2022-08-09T20:22:37.872Z,75.24
2022-08-09T20:24:41.036Z,75.44
2022-08-09T20:26:43.770Z,75.35
2022-08-09T20:28:49.780Z,75.44
2022-08-09T20:30:52.684Z,75.05
2022-08-09T20:32:57.740Z,75.93
2022-08-09T20:35:01.436Z,76.07
2022-08-09T20:37:06.428Z,76.23
2022-08-09T20:39:28.725Z,76.62
2022-08-09T20:41:37.548Z,76.97
2022-08-09T20:43:44.843Z,77.00
2022-08-09T20:45:59.591Z,76.92
2022-08-09T20:48:05.234Z,77.19
2022-08-09T20:50:14.815Z,77.52
2022-08-09T20:52:36.794Z,77.43
2022-08-09T20:54:40.480Z,77.27
2022-08-09T20:56:55.532Z,76.93
2022-08-09T20:58:59.311Z,76.27
2022-08-09T21:01:32.777Z,76.09
2022-08-09T21:03:31.131Z,75.51
2022-08-09T21:05:59.985Z,75.44
2022-08-09T21:08:02.817Z,75.00
2022-08-09T21:10:07.028Z,75.42
2022-08-09T21:14:19.249Z,75.00
2022-08-09T21:16:21.931Z,74.54
2022-08-09T21:18:33.431Z,74.65
2022-08-09T21:20:56.699Z,74.99
2022-08-09T21:23:00.709Z,75.21
2022-08-09T21:25:22.333Z,74.76
2022-08-09T21:27:52.713Z,74.16
2022-08-09T21:29:55.749Z,74.17
2022-08-09T21:31:58.644Z,74.53
2022-08-09T21:34:02.985Z,74.77
2022-08-09T21:36:10.163Z,74.71
2022-08-09T21:38:15.219Z,74.56
2022-08-09T21:40:30.282Z,74.81
2022-08-09T21:42:33.633Z,75.08
2022-08-09T21:44:37.169Z,75.57
2022-08-09T21:46:40.492Z,75.98
2022-08-09T21:48:49.083Z,75.34
2022-08-09T21:50:52.266Z,76.19
2022-08-09T21:52:56.041Z,76.92
2022-08-09T21:55:03.731Z,76.55
2022-08-09T21:57:37.315Z,76.57
2022-08-09T21:59:42.792Z,76.68
2022-08-09T22:01:58.765Z,77.03
2022-08-09T22:04:02.843Z,77.66
2022-08-09T22:06:05.807Z,77.67
2022-08-09T22:08:13.235Z,77.98
2022-08-09T22:10:22.972Z,78.07
2022-08-09T22:12:34.868Z,78.37
2022-08-09T22:14:37.532Z,79.14
2022-08-09T22:16:40.410Z,78.94
2022-08-09T22:18:53.262Z,79.13
2022-08-09T22:20:57.323Z,79.87
2022-08-09T22:23:00.495Z,80.24
2022-08-09T22:26:04.533Z,79.89
2022-08-09T22:27:26.503Z,79.89
2022-08-09T22:29:46.311Z,80.56
2022-08-09T22:31:56.530Z,80.83
2022-08-09T22:33:59.872Z,81.27
2022-08-09T22:36:03.762Z,81.25
2022-08-09T22:38:08.004Z,82.11
2022-08-09T22:40:18.248Z,82.25
2022-08-09T22:42:23.635Z,82.02
2022-08-09T22:44:32.699Z,81.87
2022-08-09T22:48:12.673Z,82.69
2022-08-09T22:49:01.849Z,83.33
2022-08-09T22:51:17.877Z,83.12
2022-08-09T22:53:44.239Z,83.08
2022-08-09T22:56:33.029Z,83.49
2022-08-09T22:58:30.557Z,84.37
2022-08-09T23:00:34.847Z,85.89
2022-08-09T23:02:40.615Z,85.71
2022-08-09T23:04:53.619Z,85.77
2022-08-09T23:07:16.323Z,86.69
2022-08-09T23:09:19.137Z,87.18
2022-08-09T23:11:22.615Z,88.19
2022-08-09T23:13:25.339Z,88.51
2022-08-09T23:15:29.228Z,88.17
2022-08-09T23:17:32.227Z,88.13
2022-08-09T23:20:00.857Z,87.99
2022-08-09T23:21:57.792Z,88.15
2022-08-09T23:24:05.138Z,88.58
2022-08-09T23:26:09.522Z,88.12
2022-08-09T23:28:15.548Z,87.74
2022-08-09T23:30:18.724Z,87.10
2022-08-09T23:32:21.394Z,86.91
2022-08-09T23:34:24.108Z,87.16
2022-08-09T23:36:26.720Z,87.20
2022-08-09T23:38:29.397Z,87.15
2022-08-09T23:40:32.111Z,87.26
2022-08-09T23:42:34.892Z,87.06
2022-08-09T23:44:37.669Z,87.17
2022-08-09T23:46:40.648Z,87.42
2022-08-09T23:48:43.319Z,87.27
2022-08-09T23:50:46.714Z,87.44
2022-08-09T23:52:49.399Z,87.59
2022-08-09T23:54:52.856Z,87.28
2022-08-09T23:56:56.150Z,87.24
2022-08-09T23:59:00.903Z,87.54
